Pagrindinis puslapis
METAR-TAF:

METAR-TAF

Oro uostai :

Mitiga International Airport

Tripolis, Libija

platuma: 32-54N, ilguma: 13-17E, Aukštis: 11 m

METAR: trūkstamas

Laikas: 00:06 (22:06 UTC)

Prognozė

Ataskaita buvo paskelbta 11 valandos ir 6 minutes, ne 11:00 UTC
Prognozė galioja nuo 02 metu 12 UTC su 03 metu 12 UTC
Vėjas 10 kt iš Vakarų
Matomumas: 8000 m
Išsisklaidę debesys ne aukštis 2500 ft
Tapsmas
nuo 02 metu 20 UTC su 02 metu 22 UTC
Vėjas 2 kt nuo kintamojo kryptimis
Tapsmas
nuo 03 metu 02 UTC su 03 metu 04 UTC
Vėjas 12 kt iš Pietų
Tapsmas
nuo 03 metu 10 UTC su 03 metu 12 UTC
Vėjas 15 kt iš Vakarų/Pietvakarių

TAF: HLLM 021100Z 0212/0312 27010KT 8000 SCT025 BECMG 0220/0222 VRB02KT BECMG 0302/0304 18012KT BECMG 0310/0312 25015KT

Orai ataskaitas ir orų prognozės (METAR, TAF).

turimą stotys yra geltonos ir raudonos taškus žemėlapyje.

Perkelti pele per norėdami pamatyti stoties vardą.

Tada spustelėkite, norėdami matyti oro stebėjimo ir prognozės.

Norėdami pakeisti žemėlapį: spustelėkite ant žalios mygtukų su juodo kryžiaus žemyn,; žalią mygtuką su brūkšneliu, jei norite nutolinti; arba žalių rodyklių gretimoms žemėlapius.


METAR-TAF: